sensor_id;sensor_type;location;lat;lon;timestamp;P1;durP1;ratioP1;P2;durP2;ratioP2
56718;SDS011;42597;40.636;0.278;2024-02-04T00:00:14;11.60;;;7.38;;
56718;SDS011;42597;40.636;0.278;2024-02-04T00:02:40;13.93;;;7.63;;
56718;SDS011;42597;40.636;0.278;2024-02-04T00:05:06;12.48;;;6.38;;
56718;SDS011;42597;40.636;0.278;2024-02-04T00:07:32;6.43;;;3.70;;
56718;SDS011;42597;40.636;0.278;2024-02-04T00:09:57;6.43;;;3.60;;
56718;SDS011;42597;40.636;0.278;2024-02-04T00:12:23;8.68;;;4.90;;
56718;SDS011;42597;40.636;0.278;2024-02-04T00:14:48;10.13;;;6.88;;
56718;SDS011;42597;40.636;0.278;2024-02-04T00:17:15;9.25;;;5.40;;
56718;SDS011;42597;40.636;0.278;2024-02-04T00:19:41;9.68;;;5.95;;
56718;SDS011;42597;40.636;0.278;2024-02-04T00:22:07;8.55;;;4.90;;
56718;SDS011;42597;40.636;0.278;2024-02-04T00:24:33;11.43;;;5.88;;
56718;SDS011;42597;40.636;0.278;2024-02-04T00:26:58;7.80;;;4.63;;
56718;SDS011;42597;40.636;0.278;2024-02-04T00:29:24;7.90;;;4.85;;
56718;SDS011;42597;40.636;0.278;2024-02-04T00:31:49;6.13;;;3.67;;
56718;SDS011;42597;40.636;0.278;2024-02-04T00:34:15;7.10;;;4.40;;
56718;SDS011;42597;40.636;0.278;2024-02-04T00:36:41;11.13;;;5.15;;
56718;SDS011;42597;40.636;0.278;2024-02-04T00:39:07;7.88;;;4.00;;
56718;SDS011;42597;40.636;0.278;2024-02-04T00:41:33;8.95;;;5.32;;
56718;SDS011;42597;40.636;0.278;2024-02-04T00:43:59;8.05;;;3.63;;
56718;SDS011;42597;40.636;0.278;2024-02-04T00:46:24;9.02;;;5.28;;
56718;SDS011;42597;40.636;0.278;2024-02-04T00:48:50;8.88;;;5.18;;
56718;SDS011;42597;40.636;0.278;2024-02-04T00:51:15;9.88;;;6.15;;
56718;SDS011;42597;40.636;0.278;2024-02-04T00:53:45;12.38;;;5.82;;
56718;SDS011;42597;40.636;0.278;2024-02-04T00:56:11;11.18;;;6.20;;
56718;SDS011;42597;40.636;0.278;2024-02-04T00:58:37;12.10;;;6.97;;
56718;SDS011;42597;40.636;0.278;2024-02-04T01:01:03;7.75;;;4.07;;
56718;SDS011;42597;40.636;0.278;2024-02-04T01:03:30;7.90;;;4.35;;
56718;SDS011;42597;40.636;0.278;2024-02-04T01:05:56;7.82;;;3.28;;
56718;SDS011;42597;40.636;0.278;2024-02-04T01:08:22;5.70;;;2.65;;
56718;SDS011;42597;40.636;0.278;2024-02-04T01:10:48;6.97;;;4.07;;
56718;SDS011;42597;40.636;0.278;2024-02-04T01:13:16;4.82;;;2.50;;
56718;SDS011;42597;40.636;0.278;2024-02-04T01:15:42;6.15;;;3.20;;
56718;SDS011;42597;40.636;0.278;2024-02-04T01:18:08;3.80;;;2.00;;
56718;SDS011;42597;40.636;0.278;2024-02-04T01:20:34;3.90;;;1.75;;
56718;SDS011;42597;40.636;0.278;2024-02-04T01:22:59;5.53;;;2.70;;
56718;SDS011;42597;40.636;0.278;2024-02-04T01:25:25;7.25;;;4.03;;
56718;SDS011;42597;40.636;0.278;2024-02-04T01:27:50;5.80;;;3.25;;
56718;SDS011;42597;40.636;0.278;2024-02-04T01:30:16;4.25;;;2.55;;
56718;SDS011;42597;40.636;0.278;2024-02-04T01:32:42;5.80;;;3.75;;
56718;SDS011;42597;40.636;0.278;2024-02-04T01:35:07;6.55;;;3.63;;
56718;SDS011;42597;40.636;0.278;2024-02-04T01:37:33;7.85;;;2.42;;
56718;SDS011;42597;40.636;0.278;2024-02-04T01:39:59;5.65;;;3.00;;
56718;SDS011;42597;40.636;0.278;2024-02-04T01:42:24;5.82;;;3.50;;
56718;SDS011;42597;40.636;0.278;2024-02-04T01:44:50;6.72;;;3.35;;
56718;SDS011;42597;40.636;0.278;2024-02-04T01:47:16;4.70;;;2.65;;
56718;SDS011;42597;40.636;0.278;2024-02-04T01:49:42;5.82;;;2.28;;
56718;SDS011;42597;40.636;0.278;2024-02-04T01:52:09;6.18;;;3.42;;
56718;SDS011;42597;40.636;0.278;2024-02-04T01:54:37;4.18;;;2.58;;
56718;SDS011;42597;40.636;0.278;2024-02-04T01:57:05;4.30;;;2.00;;
56718;SDS011;42597;40.636;0.278;2024-02-04T01:59:31;6.15;;;3.42;;
56718;SDS011;42597;40.636;0.278;2024-02-04T02:02:00;5.05;;;3.10;;
56718;SDS011;42597;40.636;0.278;2024-02-04T02:04:26;5.53;;;2.75;;
56718;SDS011;42597;40.636;0.278;2024-02-04T02:06:55;4.35;;;2.10;;
56718;SDS011;42597;40.636;0.278;2024-02-04T02:09:21;5.35;;;2.40;;
56718;SDS011;42597;40.636;0.278;2024-02-04T02:11:49;7.22;;;2.38;;
56718;SDS011;42597;40.636;0.278;2024-02-04T02:14:19;6.18;;;2.67;;
56718;SDS011;42597;40.636;0.278;2024-02-04T02:16:50;4.95;;;2.63;;
56718;SDS011;42597;40.636;0.278;2024-02-04T02:24:48;6.18;;;2.50;;
56718;SDS011;42597;40.636;0.278;2024-02-04T02:27:16;4.28;;;2.17;;
56718;SDS011;42597;40.636;0.278;2024-02-04T02:29:41;6.72;;;2.25;;
56718;SDS011;42597;40.636;0.278;2024-02-04T02:32:07;4.82;;;2.25;;
56718;SDS011;42597;40.636;0.278;2024-02-04T02:34:33;5.00;;;2.83;;
56718;SDS011;42597;40.636;0.278;2024-02-04T02:37:02;5.57;;;2.85;;
56718;SDS011;42597;40.636;0.278;2024-02-04T02:39:48;6.97;;;3.30;;
56718;SDS011;42597;40.636;0.278;2024-02-04T02:42:20;5.03;;;2.92;;
56718;SDS011;42597;40.636;0.278;2024-02-04T02:44:48;5.00;;;2.83;;
56718;SDS011;42597;40.636;0.278;2024-02-04T02:47:14;3.13;;;1.60;;
56718;SDS011;42597;40.636;0.278;2024-02-04T02:49:40;3.75;;;1.48;;
56718;SDS011;42597;40.636;0.278;2024-02-04T02:52:06;4.15;;;1.90;;
56718;SDS011;42597;40.636;0.278;2024-02-04T02:54:32;5.90;;;2.55;;
56718;SDS011;42597;40.636;0.278;2024-02-04T02:56:57;6.53;;;2.83;;
56718;SDS011;42597;40.636;0.278;2024-02-04T02:59:23;3.70;;;1.50;;
56718;SDS011;42597;40.636;0.278;2024-02-04T03:01:49;5.05;;;2.47;;
56718;SDS011;42597;40.636;0.278;2024-02-04T03:04:14;4.63;;;2.50;;
56718;SDS011;42597;40.636;0.278;2024-02-04T03:06:40;7.13;;;3.08;;
56718;SDS011;42597;40.636;0.278;2024-02-04T03:09:05;4.57;;;1.98;;
56718;SDS011;42597;40.636;0.278;2024-02-04T03:11:31;3.40;;;1.67;;
56718;SDS011;42597;40.636;0.278;2024-02-04T03:13:56;5.18;;;2.00;;
56718;SDS011;42597;40.636;0.278;2024-02-04T03:16:22;4.53;;;1.95;;
56718;SDS011;42597;40.636;0.278;2024-02-04T03:18:47;5.15;;;1.92;;
56718;SDS011;42597;40.636;0.278;2024-02-04T03:21:13;3.92;;;2.63;;
56718;SDS011;42597;40.636;0.278;2024-02-04T03:23:43;4.50;;;2.38;;
56718;SDS011;42597;40.636;0.278;2024-02-04T03:26:09;6.53;;;2.67;;
56718;SDS011;42597;40.636;0.278;2024-02-04T03:28:35;3.35;;;1.75;;
56718;SDS011;42597;40.636;0.278;2024-02-04T03:31:01;4.95;;;1.77;;
56718;SDS011;42597;40.636;0.278;2024-02-04T03:33:27;4.28;;;2.45;;
56718;SDS011;42597;40.636;0.278;2024-02-04T03:35:53;3.22;;;1.67;;
56718;SDS011;42597;40.636;0.278;2024-02-04T03:38:18;4.10;;;2.08;;
56718;SDS011;42597;40.636;0.278;2024-02-04T03:40:44;5.22;;;2.47;;
56718;SDS011;42597;40.636;0.278;2024-02-04T03:43:10;4.20;;;1.60;;
56718;SDS011;42597;40.636;0.278;2024-02-04T03:45:36;4.63;;;2.10;;
56718;SDS011;42597;40.636;0.278;2024-02-04T03:48:02;5.60;;;2.08;;
56718;SDS011;42597;40.636;0.278;2024-02-04T03:50:28;4.60;;;2.10;;
56718;SDS011;42597;40.636;0.278;2024-02-04T03:52:53;4.07;;;1.92;;
56718;SDS011;42597;40.636;0.278;2024-02-04T03:55:19;2.85;;;1.27;;
56718;SDS011;42597;40.636;0.278;2024-02-04T03:57:45;4.32;;;1.60;;
56718;SDS011;42597;40.636;0.278;2024-02-04T04:00:11;3.90;;;1.70;;
56718;SDS011;42597;40.636;0.278;2024-02-04T04:02:37;4.07;;;1.60;;
56718;SDS011;42597;40.636;0.278;2024-02-04T04:05:02;7.05;;;1.70;;
56718;SDS011;42597;40.636;0.278;2024-02-04T04:07:28;5.10;;;1.70;;
56718;SDS011;42597;40.636;0.278;2024-02-04T04:09:54;4.72;;;1.90;;
56718;SDS011;42597;40.636;0.278;2024-02-04T04:12:19;3.40;;;1.67;;
56718;SDS011;42597;40.636;0.278;2024-02-04T04:14:45;4.20;;;1.33;;
56718;SDS011;42597;40.636;0.278;2024-02-04T04:17:10;3.17;;;1.90;;
56718;SDS011;42597;40.636;0.278;2024-02-04T04:19:36;4.93;;;2.72;;
56718;SDS011;42597;40.636;0.278;2024-02-04T04:22:02;13.68;;;2.67;;
56718;SDS011;42597;40.636;0.278;2024-02-04T04:24:28;4.57;;;2.42;;
56718;SDS011;42597;40.636;0.278;2024-02-04T04:26:54;5.88;;;2.67;;
56718;SDS011;42597;40.636;0.278;2024-02-04T04:29:20;4.85;;;2.40;;
56718;SDS011;42597;40.636;0.278;2024-02-04T04:31:45;5.20;;;2.70;;
56718;SDS011;42597;40.636;0.278;2024-02-04T04:34:11;5.25;;;1.95;;
56718;SDS011;42597;40.636;0.278;2024-02-04T04:36:37;4.10;;;2.15;;
56718;SDS011;42597;40.636;0.278;2024-02-04T04:39:02;3.60;;;1.92;;
56718;SDS011;42597;40.636;0.278;2024-02-04T04:41:28;3.53;;;1.73;;
56718;SDS011;42597;40.636;0.278;2024-02-04T04:43:54;2.95;;;1.63;;
56718;SDS011;42597;40.636;0.278;2024-02-04T04:46:19;4.75;;;1.83;;
56718;SDS011;42597;40.636;0.278;2024-02-04T04:48:45;3.58;;;1.95;;
56718;SDS011;42597;40.636;0.278;2024-02-04T04:51:11;3.35;;;1.77;;
56718;SDS011;42597;40.636;0.278;2024-02-04T04:53:37;2.88;;;1.60;;
56718;SDS011;42597;40.636;0.278;2024-02-04T04:56:03;2.35;;;1.20;;
56718;SDS011;42597;40.636;0.278;2024-02-04T04:58:29;3.85;;;1.45;;
56718;SDS011;42597;40.636;0.278;2024-02-04T05:00:54;4.13;;;1.70;;
56718;SDS011;42597;40.636;0.278;2024-02-04T05:03:20;4.57;;;1.92;;
56718;SDS011;42597;40.636;0.278;2024-02-04T05:05:45;2.97;;;1.80;;
56718;SDS011;42597;40.636;0.278;2024-02-04T05:08:12;8.93;;;4.00;;
56718;SDS011;42597;40.636;0.278;2024-02-04T05:10:40;6.55;;;2.40;;
56718;SDS011;42597;40.636;0.278;2024-02-04T05:13:05;6.55;;;2.33;;
56718;SDS011;42597;40.636;0.278;2024-02-04T05:15:31;5.47;;;1.60;;
56718;SDS011;42597;40.636;0.278;2024-02-04T05:17:56;4.22;;;1.90;;
56718;SDS011;42597;40.636;0.278;2024-02-04T05:20:22;5.20;;;2.08;;
56718;SDS011;42597;40.636;0.278;2024-02-04T05:22:47;4.82;;;1.85;;
56718;SDS011;42597;40.636;0.278;2024-02-04T05:25:13;3.17;;;2.05;;
56718;SDS011;42597;40.636;0.278;2024-02-04T05:27:39;5.35;;;2.78;;
56718;SDS011;42597;40.636;0.278;2024-02-04T05:30:04;3.67;;;1.38;;
56718;SDS011;42597;40.636;0.278;2024-02-04T05:32:30;4.20;;;1.77;;
56718;SDS011;42597;40.636;0.278;2024-02-04T05:34:56;6.97;;;2.28;;
56718;SDS011;42597;40.636;0.278;2024-02-04T05:37:22;3.33;;;1.98;;
56718;SDS011;42597;40.636;0.278;2024-02-04T05:39:47;3.58;;;1.92;;
56718;SDS011;42597;40.636;0.278;2024-02-04T05:42:13;4.07;;;1.73;;
56718;SDS011;42597;40.636;0.278;2024-02-04T05:44:38;4.10;;;1.45;;
56718;SDS011;42597;40.636;0.278;2024-02-04T05:47:04;3.25;;;1.17;;
56718;SDS011;42597;40.636;0.278;2024-02-04T05:49:30;3.40;;;2.25;;
56718;SDS011;42597;40.636;0.278;2024-02-04T05:51:55;4.15;;;2.25;;
56718;SDS011;42597;40.636;0.278;2024-02-04T05:54:21;7.68;;;3.60;;
56718;SDS011;42597;40.636;0.278;2024-02-04T05:56:47;9.07;;;3.15;;
56718;SDS011;42597;40.636;0.278;2024-02-04T05:59:12;6.47;;;3.38;;
56718;SDS011;42597;40.636;0.278;2024-02-04T06:01:38;8.80;;;4.47;;
56718;SDS011;42597;40.636;0.278;2024-02-04T06:04:03;12.75;;;6.55;;
56718;SDS011;42597;40.636;0.278;2024-02-04T06:06:29;13.07;;;4.97;;
56718;SDS011;42597;40.636;0.278;2024-02-04T06:08:54;8.20;;;4.38;;
56718;SDS011;42597;40.636;0.278;2024-02-04T06:11:20;5.40;;;2.85;;
56718;SDS011;42597;40.636;0.278;2024-02-04T06:13:45;8.05;;;3.08;;
56718;SDS011;42597;40.636;0.278;2024-02-04T06:16:11;5.05;;;1.90;;
56718;SDS011;42597;40.636;0.278;2024-02-04T06:18:39;4.15;;;1.52;;
56718;SDS011;42597;40.636;0.278;2024-02-04T06:21:05;4.13;;;1.80;;
56718;SDS011;42597;40.636;0.278;2024-02-04T06:23:31;2.92;;;2.50;;
56718;SDS011;42597;40.636;0.278;2024-02-04T06:25:57;4.07;;;1.95;;
56718;SDS011;42597;40.636;0.278;2024-02-04T06:28:22;3.28;;;1.50;;
56718;SDS011;42597;40.636;0.278;2024-02-04T06:30:48;6.22;;;2.00;;
56718;SDS011;42597;40.636;0.278;2024-02-04T06:33:14;3.30;;;1.50;;
56718;SDS011;42597;40.636;0.278;2024-02-04T06:35:40;3.25;;;1.65;;
56718;SDS011;42597;40.636;0.278;2024-02-04T06:38:05;4.25;;;1.60;;
56718;SDS011;42597;40.636;0.278;2024-02-04T06:40:31;6.28;;;1.48;;
56718;SDS011;42597;40.636;0.278;2024-02-04T06:42:56;3.38;;;1.50;;
56718;SDS011;42597;40.636;0.278;2024-02-04T06:45:22;3.38;;;1.55;;
56718;SDS011;42597;40.636;0.278;2024-02-04T06:47:48;3.30;;;1.95;;
56718;SDS011;42597;40.636;0.278;2024-02-04T06:50:13;3.03;;;1.45;;
56718;SDS011;42597;40.636;0.278;2024-02-04T06:52:39;4.65;;;1.95;;
56718;SDS011;42597;40.636;0.278;2024-02-04T06:55:05;3.38;;;1.60;;
56718;SDS011;42597;40.636;0.278;2024-02-04T06:57:31;3.75;;;1.92;;
56718;SDS011;42597;40.636;0.278;2024-02-04T06:59:57;6.22;;;2.05;;
56718;SDS011;42597;40.636;0.278;2024-02-04T07:02:22;3.92;;;1.65;;
56718;SDS011;42597;40.636;0.278;2024-02-04T07:04:48;4.63;;;1.95;;
56718;SDS011;42597;40.636;0.278;2024-02-04T07:07:14;6.53;;;1.95;;
56718;SDS011;42597;40.636;0.278;2024-02-04T07:09:39;3.92;;;1.90;;
56718;SDS011;42597;40.636;0.278;2024-02-04T07:12:05;5.65;;;2.45;;
56718;SDS011;42597;40.636;0.278;2024-02-04T07:14:31;6.88;;;2.72;;
56718;SDS011;42597;40.636;0.278;2024-02-04T07:16:56;5.70;;;2.40;;
56718;SDS011;42597;40.636;0.278;2024-02-04T07:19:22;4.15;;;1.75;;
56718;SDS011;42597;40.636;0.278;2024-02-04T07:21:47;4.47;;;1.95;;
56718;SDS011;42597;40.636;0.278;2024-02-04T07:24:13;7.35;;;1.83;;
56718;SDS011;42597;40.636;0.278;2024-02-04T07:26:38;6.35;;;1.92;;
56718;SDS011;42597;40.636;0.278;2024-02-04T07:29:04;5.03;;;1.52;;
56718;SDS011;42597;40.636;0.278;2024-02-04T07:31:30;5.78;;;2.10;;
56718;SDS011;42597;40.636;0.278;2024-02-04T07:33:55;3.65;;;1.80;;
56718;SDS011;42597;40.636;0.278;2024-02-04T07:36:21;5.93;;;1.98;;
56718;SDS011;42597;40.636;0.278;2024-02-04T07:38:46;5.15;;;2.22;;
56718;SDS011;42597;40.636;0.278;2024-02-04T07:41:15;7.85;;;2.03;;
56718;SDS011;42597;40.636;0.278;2024-02-04T07:43:41;2.30;;;1.38;;
56718;SDS011;42597;40.636;0.278;2024-02-04T07:46:09;5.85;;;1.90;;
56718;SDS011;42597;40.636;0.278;2024-02-04T07:48:34;6.63;;;2.67;;
56718;SDS011;42597;40.636;0.278;2024-02-04T07:51:00;5.55;;;2.20;;
56718;SDS011;42597;40.636;0.278;2024-02-04T07:53:25;5.25;;;1.88;;
56718;SDS011;42597;40.636;0.278;2024-02-04T07:55:51;4.85;;;1.60;;
56718;SDS011;42597;40.636;0.278;2024-02-04T07:58:16;4.43;;;2.60;;
56718;SDS011;42597;40.636;0.278;2024-02-04T08:00:42;3.60;;;1.80;;
56718;SDS011;42597;40.636;0.278;2024-02-04T08:03:07;2.97;;;1.67;;
56718;SDS011;42597;40.636;0.278;2024-02-04T08:05:33;4.03;;;1.70;;
56718;SDS011;42597;40.636;0.278;2024-02-04T08:08:00;9.85;;;3.10;;
56718;SDS011;42597;40.636;0.278;2024-02-04T08:10:26;2.65;;;1.40;;
56718;SDS011;42597;40.636;0.278;2024-02-04T08:12:52;10.60;;;5.50;;
56718;SDS011;42597;40.636;0.278;2024-02-04T08:15:19;17.15;;;8.07;;
56718;SDS011;42597;40.636;0.278;2024-02-04T08:17:45;23.25;;;10.68;;
56718;SDS011;42597;40.636;0.278;2024-02-04T08:20:11;6.47;;;3.28;;
56718;SDS011;42597;40.636;0.278;2024-02-04T08:22:37;21.67;;;10.93;;
56718;SDS011;42597;40.636;0.278;2024-02-04T08:25:03;10.15;;;3.47;;
56718;SDS011;42597;40.636;0.278;2024-02-04T08:27:30;9.35;;;4.15;;
56718;SDS011;42597;40.636;0.278;2024-02-04T08:29:56;11.80;;;6.53;;
56718;SDS011;42597;40.636;0.278;2024-02-04T08:32:22;8.75;;;3.83;;
56718;SDS011;42597;40.636;0.278;2024-02-04T08:34:47;10.82;;;3.72;;
56718;SDS011;42597;40.636;0.278;2024-02-04T08:37:13;7.25;;;2.90;;
56718;SDS011;42597;40.636;0.278;2024-02-04T08:39:39;7.50;;;3.90;;
56718;SDS011;42597;40.636;0.278;2024-02-04T08:42:04;5.53;;;2.72;;
56718;SDS011;42597;40.636;0.278;2024-02-04T08:44:30;4.60;;;1.73;;
56718;SDS011;42597;40.636;0.278;2024-02-04T08:46:55;4.75;;;2.10;;
56718;SDS011;42597;40.636;0.278;2024-02-04T08:49:21;4.72;;;2.13;;
56718;SDS011;42597;40.636;0.278;2024-02-04T08:51:47;5.43;;;2.08;;
56718;SDS011;42597;40.636;0.278;2024-02-04T08:54:12;4.50;;;2.33;;
56718;SDS011;42597;40.636;0.278;2024-02-04T08:56:38;10.75;;;4.28;;
56718;SDS011;42597;40.636;0.278;2024-02-04T08:59:03;5.38;;;3.10;;
56718;SDS011;42597;40.636;0.278;2024-02-04T09:01:31;4.13;;;2.15;;
56718;SDS011;42597;40.636;0.278;2024-02-04T09:03:56;3.47;;;1.67;;
56718;SDS011;42597;40.636;0.278;2024-02-04T09:06:22;5.18;;;2.30;;
56718;SDS011;42597;40.636;0.278;2024-02-04T09:08:48;6.65;;;2.97;;
56718;SDS011;42597;40.636;0.278;2024-02-04T09:11:13;5.10;;;2.53;;
56718;SDS011;42597;40.636;0.278;2024-02-04T09:13:44;9.23;;;6.78;;
56718;SDS011;42597;40.636;0.278;2024-02-04T09:16:10;8.50;;;5.45;;
56718;SDS011;42597;40.636;0.278;2024-02-04T09:18:36;5.07;;;3.33;;
56718;SDS011;42597;40.636;0.278;2024-02-04T09:21:02;12.70;;;3.03;;
56718;SDS011;42597;40.636;0.278;2024-02-04T09:23:28;6.93;;;3.83;;
56718;SDS011;42597;40.636;0.278;2024-02-04T09:25:53;10.95;;;6.28;;
56718;SDS011;42597;40.636;0.278;2024-02-04T09:28:19;8.93;;;5.60;;
56718;SDS011;42597;40.636;0.278;2024-02-04T09:30:45;9.90;;;5.35;;
56718;SDS011;42597;40.636;0.278;2024-02-04T09:33:11;10.43;;;6.15;;
56718;SDS011;42597;40.636;0.278;2024-02-04T09:35:37;10.60;;;5.93;;
56718;SDS011;42597;40.636;0.278;2024-02-04T09:38:03;13.10;;;6.85;;
56718;SDS011;42597;40.636;0.278;2024-02-04T09:40:29;7.95;;;4.65;;
56718;SDS011;42597;40.636;0.278;2024-02-04T09:42:54;9.50;;;5.43;;
56718;SDS011;42597;40.636;0.278;2024-02-04T09:45:21;9.40;;;4.40;;
56718;SDS011;42597;40.636;0.278;2024-02-04T09:47:47;9.77;;;4.80;;
56718;SDS011;42597;40.636;0.278;2024-02-04T09:50:18;14.70;;;6.03;;
56718;SDS011;42597;40.636;0.278;2024-02-04T09:52:47;14.52;;;7.75;;
56718;SDS011;42597;40.636;0.278;2024-02-04T09:55:15;10.45;;;5.53;;
56718;SDS011;42597;40.636;0.278;2024-02-04T09:57:43;11.90;;;5.85;;
56718;SDS011;42597;40.636;0.278;2024-02-04T10:00:09;9.23;;;4.70;;
56718;SDS011;42597;40.636;0.278;2024-02-04T10:02:35;16.48;;;8.75;;
56718;SDS011;42597;40.636;0.278;2024-02-04T10:05:02;13.02;;;7.97;;
56718;SDS011;42597;40.636;0.278;2024-02-04T10:07:28;19.13;;;9.48;;
56718;SDS011;42597;40.636;0.278;2024-02-04T10:09:55;29.40;;;11.63;;
56718;SDS011;42597;40.636;0.278;2024-02-04T10:12:20;8.48;;;6.10;;
56718;SDS011;42597;40.636;0.278;2024-02-04T10:14:48;10.73;;;7.32;;
56718;SDS011;42597;40.636;0.278;2024-02-04T10:17:17;9.30;;;5.43;;
56718;SDS011;42597;40.636;0.278;2024-02-04T10:19:46;9.50;;;4.90;;
56718;SDS011;42597;40.636;0.278;2024-02-04T10:22:13;11.93;;;6.32;;
56718;SDS011;42597;40.636;0.278;2024-02-04T10:24:39;10.18;;;5.60;;
56718;SDS011;42597;40.636;0.278;2024-02-04T10:27:04;8.35;;;5.20;;
56718;SDS011;42597;40.636;0.278;2024-02-04T10:29:30;9.82;;;6.20;;
56718;SDS011;42597;40.636;0.278;2024-02-04T10:31:56;14.50;;;8.38;;
56718;SDS011;42597;40.636;0.278;2024-02-04T10:34:26;12.15;;;6.45;;
56718;SDS011;42597;40.636;0.278;2024-02-04T10:36:52;7.35;;;3.47;;
56718;SDS011;42597;40.636;0.278;2024-02-04T10:39:18;10.38;;;5.70;;
56718;SDS011;42597;40.636;0.278;2024-02-04T10:41:48;9.70;;;4.45;;
56718;SDS011;42597;40.636;0.278;2024-02-04T10:44:16;9.77;;;4.47;;
56718;SDS011;42597;40.636;0.278;2024-02-04T10:46:43;5.97;;;3.90;;
56718;SDS011;42597;40.636;0.278;2024-02-04T10:51:39;7.10;;;3.70;;
56718;SDS011;42597;40.636;0.278;2024-02-04T10:54:06;6.57;;;3.80;;
56718;SDS011;42597;40.636;0.278;2024-02-04T10:56:35;7.78;;;4.30;;
56718;SDS011;42597;40.636;0.278;2024-02-04T10:59:07;6.55;;;2.58;;
56718;SDS011;42597;40.636;0.278;2024-02-04T11:01:34;6.35;;;2.70;;
56718;SDS011;42597;40.636;0.278;2024-02-04T11:04:01;5.20;;;3.13;;
56718;SDS011;42597;40.636;0.278;2024-02-04T11:06:28;5.03;;;2.35;;
56718;SDS011;42597;40.636;0.278;2024-02-04T11:08:55;5.65;;;3.35;;
56718;SDS011;42597;40.636;0.278;2024-02-04T11:11:22;5.97;;;3.25;;
56718;SDS011;42597;40.636;0.278;2024-02-04T11:13:49;7.93;;;3.22;;
56718;SDS011;42597;40.636;0.278;2024-02-04T11:19:16;10.85;;;5.85;;
56718;SDS011;42597;40.636;0.278;2024-02-04T11:22:18;18.15;;;9.43;;
56718;SDS011;42597;40.636;0.278;2024-02-04T11:25:19;10.65;;;4.50;;
56718;SDS011;42597;40.636;0.278;2024-02-04T11:28:08;6.57;;;3.20;;
56718;SDS011;42597;40.636;0.278;2024-02-04T11:30:35;7.63;;;3.03;;
56718;SDS011;42597;40.636;0.278;2024-02-04T11:33:05;8.02;;;3.55;;
56718;SDS011;42597;40.636;0.278;2024-02-04T11:35:35;6.20;;;3.03;;
56718;SDS011;42597;40.636;0.278;2024-02-04T11:38:02;8.73;;;2.90;;
56718;SDS011;42597;40.636;0.278;2024-02-04T11:40:35;6.57;;;3.53;;
56718;SDS011;42597;40.636;0.278;2024-02-04T11:45:37;7.90;;;3.72;;
56718;SDS011;42597;40.636;0.278;2024-02-04T11:48:07;10.40;;;3.88;;
56718;SDS011;42597;40.636;0.278;2024-02-04T11:50:33;9.18;;;4.68;;
56718;SDS011;42597;40.636;0.278;2024-02-04T11:53:06;9.75;;;5.72;;
56718;SDS011;42597;40.636;0.278;2024-02-04T11:55:38;7.85;;;4.10;;
56718;SDS011;42597;40.636;0.278;2024-02-04T11:58:05;7.78;;;3.50;;
56718;SDS011;42597;40.636;0.278;2024-02-04T12:00:32;6.82;;;3.95;;
56718;SDS011;42597;40.636;0.278;2024-02-04T12:03:03;7.30;;;3.33;;
56718;SDS011;42597;40.636;0.278;2024-02-04T12:05:33;8.23;;;4.28;;
56718;SDS011;42597;40.636;0.278;2024-02-04T12:08:01;10.73;;;4.75;;
56718;SDS011;42597;40.636;0.278;2024-02-04T12:10:28;9.52;;;4.28;;
56718;SDS011;42597;40.636;0.278;2024-02-04T12:12:55;7.63;;;3.90;;
56718;SDS011;42597;40.636;0.278;2024-02-04T12:15:21;9.13;;;4.05;;
56718;SDS011;42597;40.636;0.278;2024-02-04T12:17:47;5.85;;;3.13;;
56718;SDS011;42597;40.636;0.278;2024-02-04T12:20:13;6.25;;;3.63;;
56718;SDS011;42597;40.636;0.278;2024-02-04T12:22:38;5.78;;;3.35;;
56718;SDS011;42597;40.636;0.278;2024-02-04T12:25:05;6.72;;;3.90;;
56718;SDS011;42597;40.636;0.278;2024-02-04T12:27:31;7.78;;;3.35;;
56718;SDS011;42597;40.636;0.278;2024-02-04T12:29:56;6.45;;;3.05;;
56718;SDS011;42597;40.636;0.278;2024-02-04T12:32:23;5.25;;;3.38;;
56718;SDS011;42597;40.636;0.278;2024-02-04T12:34:49;4.68;;;2.67;;
56718;SDS011;42597;40.636;0.278;2024-02-04T12:37:21;5.43;;;3.40;;
56718;SDS011;42597;40.636;0.278;2024-02-04T12:39:47;5.75;;;3.03;;
56718;SDS011;42597;40.636;0.278;2024-02-04T12:42:16;5.25;;;3.22;;
56718;SDS011;42597;40.636;0.278;2024-02-04T12:44:44;8.45;;;3.58;;
56718;SDS011;42597;40.636;0.278;2024-02-04T12:47:12;7.97;;;4.00;;
56718;SDS011;42597;40.636;0.278;2024-02-04T12:49:37;10.32;;;4.13;;
56718;SDS011;42597;40.636;0.278;2024-02-04T12:52:04;7.15;;;4.55;;
56718;SDS011;42597;40.636;0.278;2024-02-04T12:54:30;7.05;;;4.47;;
56718;SDS011;42597;40.636;0.278;2024-02-04T12:56:56;8.52;;;3.75;;
56718;SDS011;42597;40.636;0.278;2024-02-04T12:59:31;5.57;;;3.30;;
56718;SDS011;42597;40.636;0.278;2024-02-04T13:04:39;8.93;;;3.88;;
56718;SDS011;42597;40.636;0.278;2024-02-04T13:07:11;7.18;;;3.65;;
56718;SDS011;42597;40.636;0.278;2024-02-04T13:09:43;5.85;;;3.30;;
56718;SDS011;42597;40.636;0.278;2024-02-04T13:12:14;8.30;;;3.53;;
56718;SDS011;42597;40.636;0.278;2024-02-04T13:14:41;8.45;;;3.88;;
56718;SDS011;42597;40.636;0.278;2024-02-04T13:17:07;7.13;;;4.20;;
56718;SDS011;42597;40.636;0.278;2024-02-04T13:19:33;11.15;;;4.53;;
56718;SDS011;42597;40.636;0.278;2024-02-04T13:22:01;6.63;;;3.65;;
56718;SDS011;42597;40.636;0.278;2024-02-04T13:24:28;6.50;;;3.38;;
56718;SDS011;42597;40.636;0.278;2024-02-04T13:26:54;16.38;;;3.63;;
56718;SDS011;42597;40.636;0.278;2024-02-04T13:29:19;9.80;;;4.07;;
56718;SDS011;42597;40.636;0.278;2024-02-04T13:31:45;12.60;;;6.38;;
56718;SDS011;42597;40.636;0.278;2024-02-04T13:34:10;8.25;;;5.95;;
56718;SDS011;42597;40.636;0.278;2024-02-04T13:36:36;12.23;;;4.88;;
56718;SDS011;42597;40.636;0.278;2024-02-04T13:39:02;7.70;;;3.75;;
56718;SDS011;42597;40.636;0.278;2024-02-04T13:41:27;9.55;;;3.22;;
56718;SDS011;42597;40.636;0.278;2024-02-04T13:43:53;7.30;;;3.72;;
56718;SDS011;42597;40.636;0.278;2024-02-04T13:46:19;8.35;;;3.85;;
56718;SDS011;42597;40.636;0.278;2024-02-04T13:48:44;7.82;;;4.78;;
56718;SDS011;42597;40.636;0.278;2024-02-04T13:51:10;9.57;;;4.85;;
56718;SDS011;42597;40.636;0.278;2024-02-04T13:53:36;9.93;;;4.43;;
56718;SDS011;42597;40.636;0.278;2024-02-04T13:56:02;9.00;;;4.55;;
56718;SDS011;42597;40.636;0.278;2024-02-04T13:58:27;8.93;;;4.53;;
56718;SDS011;42597;40.636;0.278;2024-02-04T14:00:53;8.70;;;3.75;;
56718;SDS011;42597;40.636;0.278;2024-02-04T14:03:18;8.10;;;5.22;;
56718;SDS011;42597;40.636;0.278;2024-02-04T14:05:44;7.38;;;4.03;;
56718;SDS011;42597;40.636;0.278;2024-02-04T14:08:10;9.32;;;5.40;;
56718;SDS011;42597;40.636;0.278;2024-02-04T14:10:35;10.27;;;6.30;;
56718;SDS011;42597;40.636;0.278;2024-02-04T14:13:01;9.75;;;6.07;;
56718;SDS011;42597;40.636;0.278;2024-02-04T14:15:27;7.03;;;4.00;;
56718;SDS011;42597;40.636;0.278;2024-02-04T14:17:53;10.13;;;4.15;;
56718;SDS011;42597;40.636;0.278;2024-02-04T14:20:19;8.65;;;5.40;;
56718;SDS011;42597;40.636;0.278;2024-02-04T14:22:45;12.75;;;4.28;;
56718;SDS011;42597;40.636;0.278;2024-02-04T14:25:10;7.35;;;3.42;;
56718;SDS011;42597;40.636;0.278;2024-02-04T14:27:36;7.45;;;4.43;;
56718;SDS011;42597;40.636;0.278;2024-02-04T14:30:04;9.60;;;4.50;;
56718;SDS011;42597;40.636;0.278;2024-02-04T14:32:30;11.23;;;5.63;;
56718;SDS011;42597;40.636;0.278;2024-02-04T14:34:55;9.68;;;5.18;;
56718;SDS011;42597;40.636;0.278;2024-02-04T14:37:21;11.95;;;6.63;;
56718;SDS011;42597;40.636;0.278;2024-02-04T14:39:47;12.30;;;6.47;;
56718;SDS011;42597;40.636;0.278;2024-02-04T14:42:14;10.68;;;6.50;;
56718;SDS011;42597;40.636;0.278;2024-02-04T14:44:41;7.97;;;5.55;;
56718;SDS011;42597;40.636;0.278;2024-02-04T14:47:06;9.98;;;6.28;;
56718;SDS011;42597;40.636;0.278;2024-02-04T14:49:32;11.07;;;7.03;;
56718;SDS011;42597;40.636;0.278;2024-02-04T14:51:58;8.02;;;5.47;;
56718;SDS011;42597;40.636;0.278;2024-02-04T14:54:23;13.60;;;8.63;;
56718;SDS011;42597;40.636;0.278;2024-02-04T14:56:49;8.32;;;5.28;;